createdAt,value
2019-06-20T00:00:34.352Z,20.30
2019-06-20T00:03:01.765Z,20.40
2019-06-20T00:05:29.547Z,20.40
2019-06-20T00:07:57.086Z,20.40
2019-06-20T00:10:24.431Z,20.50
2019-06-20T00:13:00.458Z,20.60
2019-06-20T00:15:21.455Z,20.60
2019-06-20T00:17:49.187Z,20.60
2019-06-20T00:20:16.587Z,20.60
2019-06-20T00:22:44.077Z,20.60
2019-06-20T00:25:12.013Z,20.60
2019-06-20T00:27:39.859Z,20.60
2019-06-20T00:30:08.129Z,20.70
2019-06-20T00:32:35.590Z,20.70
2019-06-20T00:35:02.975Z,20.80
2019-06-20T00:37:30.759Z,20.80
2019-06-20T00:39:58.204Z,20.80
2019-06-20T00:42:25.776Z,20.70
2019-06-20T00:44:53.306Z,20.40
2019-06-20T00:47:20.796Z,20.30
2019-06-20T00:49:48.306Z,20.20
2019-06-20T00:52:15.686Z,20.20
2019-06-20T00:54:43.147Z,20.40
2019-06-20T00:57:10.621Z,20.20
2019-06-20T00:59:38.064Z,20.00
2019-06-20T01:02:05.481Z,20.20
2019-06-20T01:04:32.824Z,20.60
2019-06-20T01:07:00.987Z,20.80
2019-06-20T01:09:28.426Z,20.60
2019-06-20T01:11:56.035Z,20.00
2019-06-20T01:14:23.477Z,19.10
2019-06-20T01:16:50.941Z,18.50
2019-06-20T01:19:18.817Z,18.00
2019-06-20T01:21:46.214Z,17.70
2019-06-20T01:24:13.620Z,17.60
2019-06-20T01:26:40.996Z,17.70
2019-06-20T01:29:09.212Z,17.60
2019-06-20T01:31:36.731Z,17.60
2019-06-20T01:34:04.689Z,17.60
2019-06-20T01:36:32.312Z,17.50
2019-06-20T01:38:59.697Z,17.30
2019-06-20T01:41:27.136Z,17.20
2019-06-20T01:43:54.491Z,17.20
2019-06-20T01:46:22.310Z,17.20
2019-06-20T01:48:49.740Z,17.20
2019-06-20T01:51:17.234Z,18.10
2019-06-20T01:53:44.727Z,17.20
2019-06-20T01:56:12.236Z,17.20
2019-06-20T01:58:39.719Z,17.10
2019-06-20T02:01:07.081Z,17.00
2019-06-20T02:03:34.450Z,17.00
2019-06-20T02:06:01.872Z,17.00
2019-06-20T02:08:29.660Z,17.00
2019-06-20T02:10:57.492Z,16.90
2019-06-20T02:13:24.991Z,16.90
2019-06-20T02:15:52.673Z,17.00
2019-06-20T02:18:20.118Z,17.00
2019-06-20T02:20:50.257Z,17.00
2019-06-20T02:23:17.829Z,17.00
2019-06-20T02:25:45.932Z,17.00
2019-06-20T02:28:13.359Z,17.10
2019-06-20T02:30:40.895Z,17.20
2019-06-20T02:33:08.353Z,17.30
2019-06-20T02:35:35.809Z,17.20
2019-06-20T02:38:03.283Z,17.30
2019-06-20T02:40:30.729Z,17.30
2019-06-20T02:42:58.165Z,17.30
2019-06-20T02:45:25.617Z,17.30
2019-06-20T02:47:53.179Z,17.40
2019-06-20T02:50:20.731Z,17.40
2019-06-20T02:52:48.087Z,17.40
2019-06-20T02:55:15.548Z,17.40
2019-06-20T02:57:43.056Z,17.30
2019-06-20T03:00:11.045Z,17.30
2019-06-20T03:02:38.821Z,17.20
2019-06-20T03:05:06.940Z,17.10
2019-06-20T03:07:34.418Z,17.10
2019-06-20T03:10:01.844Z,17.00
2019-06-20T03:12:29.327Z,17.10
2019-06-20T03:14:56.848Z,17.10
2019-06-20T03:17:24.648Z,17.10
2019-06-20T03:19:52.524Z,17.00
2019-06-20T03:22:20.037Z,17.00
2019-06-20T03:24:47.490Z,17.00
2019-06-20T03:27:15.395Z,17.10
2019-06-20T03:29:42.880Z,17.00
2019-06-20T03:32:10.285Z,17.10
2019-06-20T03:34:37.772Z,17.00
2019-06-20T03:37:05.362Z,17.10
2019-06-20T03:39:33.080Z,17.20
2019-06-20T03:42:01.275Z,17.20
2019-06-20T03:44:28.925Z,17.10
2019-06-20T03:46:56.431Z,17.10
2019-06-20T03:49:23.949Z,17.10
2019-06-20T03:51:51.809Z,17.10
2019-06-20T03:54:19.409Z,17.10
2019-06-20T03:56:46.819Z,17.10
2019-06-20T03:59:14.235Z,17.20
2019-06-20T04:01:41.990Z,17.20
2019-06-20T04:04:09.496Z,17.30
2019-06-20T04:06:36.988Z,17.30
2019-06-20T04:09:05.111Z,17.40
2019-06-20T04:11:32.654Z,17.40
2019-06-20T04:14:00.293Z,17.30
2019-06-20T04:16:27.784Z,17.30
2019-06-20T04:18:55.296Z,17.30
2019-06-20T04:21:22.918Z,17.40
2019-06-20T04:23:50.690Z,17.40
2019-06-20T04:26:18.098Z,17.50
2019-06-20T04:28:45.756Z,17.40
2019-06-20T04:31:13.250Z,17.40
2019-06-20T04:33:41.048Z,17.50
2019-06-20T04:36:08.511Z,17.50
2019-06-20T04:38:36.187Z,17.60
2019-06-20T04:41:03.698Z,17.60
2019-06-20T04:43:31.085Z,17.70
2019-06-20T04:46:17.985Z,17.70
2019-06-20T04:48:45.807Z,17.80
2019-06-20T04:51:13.206Z,18.00
2019-06-20T04:53:40.568Z,18.10
2019-06-20T04:56:08.334Z,18.20
2019-06-20T04:58:35.972Z,18.20
2019-06-20T05:01:03.451Z,18.20
2019-06-20T05:03:30.892Z,18.20
2019-06-20T05:05:58.362Z,18.30
2019-06-20T05:08:25.824Z,18.50
2019-06-20T05:10:53.263Z,18.70
2019-06-20T05:13:20.772Z,18.70
2019-06-20T05:15:53.052Z,18.80
2019-06-20T05:18:17.994Z,18.90
2019-06-20T05:20:45.311Z,19.00
2019-06-20T05:23:12.811Z,19.10
2019-06-20T05:25:40.245Z,19.20
2019-06-20T05:28:07.899Z,19.20
2019-06-20T05:30:35.385Z,19.20
2019-06-20T05:33:03.137Z,19.20
2019-06-20T05:35:30.535Z,19.20
2019-06-20T05:37:57.896Z,19.40
2019-06-20T05:40:25.631Z,19.50
2019-06-20T05:42:53.133Z,19.60
2019-06-20T05:45:20.610Z,19.70
2019-06-20T05:47:48.049Z,19.70
2019-06-20T05:50:15.654Z,19.80
2019-06-20T05:52:43.086Z,19.90
2019-06-20T05:55:10.677Z,20.00
2019-06-20T05:57:38.138Z,19.80
2019-06-20T06:00:05.879Z,19.90
2019-06-20T06:02:33.370Z,20.00
2019-06-20T06:05:01.718Z,20.20
2019-06-20T06:07:29.180Z,20.40
2019-06-20T06:09:56.552Z,20.70
2019-06-20T06:12:24.012Z,20.90
2019-06-20T06:14:51.483Z,21.00
2019-06-20T06:17:19.388Z,21.00
2019-06-20T06:19:48.001Z,20.80
2019-06-20T06:22:15.495Z,20.60
2019-06-20T06:24:43.143Z,20.50
2019-06-20T06:27:10.658Z,20.40
2019-06-20T06:29:38.168Z,20.30
2019-06-20T06:32:05.762Z,20.10
2019-06-20T06:34:33.219Z,20.00
2019-06-20T06:37:00.704Z,19.90
2019-06-20T06:39:28.066Z,19.80
2019-06-20T06:41:55.648Z,19.60
2019-06-20T06:44:23.060Z,19.40
2019-06-20T06:46:55.361Z,19.30
2019-06-20T06:49:20.053Z,19.30
2019-06-20T06:51:47.678Z,19.30
2019-06-20T06:54:15.012Z,19.20
2019-06-20T06:56:42.633Z,19.20
2019-06-20T06:59:10.115Z,19.10
2019-06-20T07:01:37.534Z,19.00
2019-06-20T07:04:04.970Z,19.00
2019-06-20T07:06:32.429Z,18.90
2019-06-20T07:08:59.838Z,18.80
2019-06-20T07:11:27.198Z,18.70
2019-06-20T07:13:55.271Z,18.70
2019-06-20T07:16:22.554Z,18.70
2019-06-20T07:18:51.130Z,18.70
2019-06-20T07:21:18.517Z,18.70
2019-06-20T07:23:45.966Z,18.80
2019-06-20T07:26:13.617Z,18.90
2019-06-20T07:28:41.068Z,19.10
2019-06-20T07:31:08.515Z,19.30
2019-06-20T07:33:35.900Z,19.60
2019-06-20T07:36:03.525Z,20.10
2019-06-20T07:38:31.257Z,20.40
2019-06-20T07:40:58.670Z,20.60
2019-06-20T07:43:26.063Z,20.60
2019-06-20T07:46:02.451Z,21.80
2019-06-20T07:48:22.827Z,22.80
2019-06-20T07:50:50.229Z,23.20
2019-06-20T07:53:17.669Z,23.50
2019-06-20T07:55:45.126Z,23.80
2019-06-20T07:58:12.587Z,23.60
2019-06-20T08:00:40.049Z,23.60
2019-06-20T08:03:07.559Z,23.60
2019-06-20T08:05:34.987Z,23.60
2019-06-20T08:08:02.475Z,24.20
2019-06-20T08:10:30.058Z,25.00
2019-06-20T08:12:57.795Z,25.50
2019-06-20T08:15:25.569Z,25.40
2019-06-20T08:17:53.362Z,25.60
2019-06-20T08:20:20.944Z,24.80
2019-06-20T08:22:48.794Z,24.90
2019-06-20T08:25:16.477Z,25.30
2019-06-20T08:27:50.033Z,25.60
2019-06-20T08:30:19.784Z,25.80
2019-06-20T08:32:47.118Z,25.90
2019-06-20T08:35:14.895Z,26.60
2019-06-20T08:37:42.377Z,26.50
2019-06-20T08:40:10.002Z,26.30
2019-06-20T08:42:37.833Z,26.70
2019-06-20T08:45:06.153Z,27.00
2019-06-20T08:47:33.621Z,27.30
2019-06-20T08:50:01.536Z,27.40
2019-06-20T08:52:29.729Z,27.50
2019-06-20T08:54:58.251Z,27.80
2019-06-20T08:57:26.575Z,27.90
2019-06-20T08:59:54.239Z,28.30
2019-06-20T09:02:23.029Z,28.00
2019-06-20T09:04:50.736Z,28.20
2019-06-20T09:07:18.274Z,28.10
2019-06-20T09:09:45.992Z,27.40
2019-06-20T09:12:13.697Z,26.70
2019-06-20T09:14:41.393Z,27.50
2019-06-20T09:17:08.880Z,28.30
2019-06-20T09:19:36.605Z,28.80
2019-06-20T09:22:05.016Z,29.30
2019-06-20T09:24:33.121Z,29.70
2019-06-20T09:27:00.946Z,30.30
2019-06-20T09:29:40.860Z,31.10
2019-06-20T09:31:58.565Z,32.00
2019-06-20T09:34:26.403Z,32.30
2019-06-20T09:36:55.095Z,32.30
2019-06-20T09:39:22.802Z,32.00
2019-06-20T09:41:51.208Z,31.80
2019-06-20T09:44:19.486Z,31.40
2019-06-20T09:46:46.972Z,30.70
2019-06-20T09:49:14.456Z,31.10
2019-06-20T09:51:41.839Z,30.80
2019-06-20T09:54:09.211Z,30.60
2019-06-20T09:56:36.593Z,30.70
2019-06-20T09:59:04.293Z,30.20
2019-06-20T10:01:31.768Z,29.70
2019-06-20T10:03:59.200Z,28.70
2019-06-20T10:06:26.705Z,29.20
2019-06-20T10:08:54.380Z,30.30
2019-06-20T10:11:22.359Z,31.70
2019-06-20T10:13:49.826Z,32.40
2019-06-20T10:16:17.268Z,32.90
2019-06-20T10:18:46.756Z,33.10
2019-06-20T10:21:13.929Z,31.60
2019-06-20T10:23:41.302Z,31.20
2019-06-20T10:26:09.257Z,30.00
2019-06-20T10:28:37.214Z,29.90
2019-06-20T10:31:04.597Z,29.30
2019-06-20T10:33:32.037Z,29.20
2019-06-20T10:35:59.907Z,29.70
2019-06-20T10:38:27.585Z,30.80
2019-06-20T10:40:57.915Z,31.50
2019-06-20T10:43:24.284Z,32.10
2019-06-20T10:45:52.616Z,31.70
2019-06-20T10:48:20.125Z,31.80
2019-06-20T10:50:47.752Z,32.30
2019-06-20T10:53:15.192Z,32.40
2019-06-20T10:55:43.365Z,32.10
2019-06-20T10:58:11.370Z,31.40
2019-06-20T11:00:40.041Z,30.60
2019-06-20T11:03:07.999Z,30.30
2019-06-20T11:05:35.369Z,30.20
2019-06-20T11:08:02.958Z,30.20
2019-06-20T11:10:30.803Z,30.00
2019-06-20T11:12:58.240Z,29.40
2019-06-20T11:15:26.368Z,29.50
2019-06-20T11:17:56.431Z,30.10
2019-06-20T11:20:23.606Z,31.00
2019-06-20T11:22:51.422Z,31.40
2019-06-20T11:25:19.757Z,33.20
2019-06-20T11:27:47.426Z,34.70
2019-06-20T11:30:17.477Z,35.80
2019-06-20T11:32:45.794Z,35.70
2019-06-20T11:35:13.361Z,33.90
2019-06-20T11:37:42.192Z,32.80
2019-06-20T11:40:10.216Z,32.80
2019-06-20T11:42:37.818Z,32.80
2019-06-20T11:45:06.643Z,32.30
2019-06-20T11:47:35.503Z,31.10
2019-06-20T11:50:04.151Z,29.90
2019-06-20T11:52:35.413Z,30.40
2019-06-20T11:55:00.993Z,30.70
2019-06-20T11:57:28.402Z,30.20
2019-06-20T11:59:55.875Z,30.20
2019-06-20T12:02:23.840Z,30.90
2019-06-20T12:04:51.293Z,32.50
2019-06-20T12:07:18.709Z,33.20
2019-06-20T12:09:46.569Z,33.40
2019-06-20T12:12:14.597Z,33.40
2019-06-20T12:14:42.589Z,33.20
2019-06-20T12:17:10.071Z,34.70
2019-06-20T12:19:39.219Z,35.40
2019-06-20T12:22:06.754Z,35.00
2019-06-20T12:24:35.031Z,33.90
2019-06-20T12:27:02.489Z,32.80
2019-06-20T12:29:30.095Z,31.10
2019-06-20T12:31:59.061Z,29.60
2019-06-20T12:34:27.030Z,28.70
2019-06-20T12:36:54.533Z,28.10
2019-06-20T12:39:21.939Z,27.70
2019-06-20T12:41:50.275Z,27.60
2019-06-20T12:44:18.071Z,27.50
2019-06-20T12:46:46.982Z,27.40
2019-06-20T12:49:14.759Z,27.40
2019-06-20T12:51:42.529Z,27.30
2019-06-20T12:54:09.898Z,27.30
2019-06-20T12:56:38.663Z,27.30
2019-06-20T12:59:06.838Z,27.40
2019-06-20T13:01:38.877Z,27.50
2019-06-20T13:04:04.096Z,28.00
2019-06-20T13:06:31.482Z,28.60
2019-06-20T13:08:59.598Z,29.00
2019-06-20T13:11:27.044Z,28.70
2019-06-20T13:13:54.430Z,29.00
2019-06-20T13:16:21.930Z,29.00
2019-06-20T13:18:50.428Z,28.90
2019-06-20T13:21:19.056Z,29.00
2019-06-20T13:23:47.230Z,29.10
2019-06-20T13:26:14.720Z,29.20
2019-06-20T13:28:58.889Z,29.50
2019-06-20T13:31:12.032Z,29.50
2019-06-20T13:33:40.883Z,29.50
2019-06-20T13:36:08.769Z,29.10
2019-06-20T13:38:36.476Z,28.70
2019-06-20T13:41:04.432Z,28.80
2019-06-20T13:43:31.888Z,28.90
2019-06-20T13:45:59.401Z,28.60
2019-06-20T13:48:27.803Z,28.40
2019-06-20T13:50:55.538Z,28.20
2019-06-20T13:53:23.444Z,28.10
2019-06-20T13:55:51.082Z,28.10
2019-06-20T13:58:18.454Z,27.90
2019-06-20T14:00:47.788Z,27.70
2019-06-20T14:03:15.266Z,27.40
2019-06-20T14:05:42.869Z,27.20
2019-06-20T14:08:10.331Z,26.90
2019-06-20T14:10:37.742Z,26.60
2019-06-20T14:13:18.289Z,26.10
2019-06-20T14:15:34.817Z,25.90
2019-06-20T14:18:02.183Z,25.60
2019-06-20T14:22:57.216Z,25.20
2019-06-20T14:25:24.688Z,24.50
2019-06-20T14:27:52.169Z,23.60
2019-06-20T14:30:20.966Z,21.90
2019-06-20T14:32:49.439Z,17.10
2019-06-20T14:35:17.416Z,16.50
2019-06-20T14:37:46.015Z,16.60
2019-06-20T14:40:14.619Z,16.30
2019-06-20T14:42:42.974Z,16.10
2019-06-20T14:45:11.569Z,16.00
2019-06-20T14:47:38.960Z,15.90
2019-06-20T14:50:06.900Z,15.70
2019-06-20T14:52:34.415Z,15.60
2019-06-20T14:55:02.005Z,15.70
2019-06-20T14:57:29.466Z,15.40
2019-06-20T14:59:57.435Z,15.40
2019-06-20T15:02:37.457Z,15.30
2019-06-20T15:04:54.361Z,15.40
2019-06-20T15:07:22.293Z,15.60
2019-06-20T15:09:51.358Z,15.70
2019-06-20T15:12:19.357Z,15.70
2019-06-20T15:14:48.294Z,15.80
2019-06-20T15:17:16.025Z,15.90
2019-06-20T15:19:44.908Z,15.90
2019-06-20T15:22:13.031Z,16.00
2019-06-20T15:24:44.933Z,16.40
2019-06-20T15:27:10.560Z,16.10
2019-06-20T15:29:37.901Z,16.20
2019-06-20T15:32:05.267Z,16.30
2019-06-20T15:34:32.813Z,16.40
2019-06-20T15:37:00.295Z,16.50
2019-06-20T15:39:28.139Z,16.70
2019-06-20T15:41:55.842Z,17.00
2019-06-20T15:44:23.263Z,17.00
2019-06-20T15:46:50.727Z,16.80
2019-06-20T15:49:18.471Z,16.70
2019-06-20T15:51:46.009Z,16.70
2019-06-20T15:54:13.532Z,16.70
2019-06-20T15:56:41.019Z,17.00
2019-06-20T15:59:08.679Z,18.40
2019-06-20T16:01:36.162Z,17.50
2019-06-20T16:04:03.658Z,17.50
2019-06-20T16:06:31.307Z,17.50
2019-06-20T16:08:58.790Z,17.60
2019-06-20T16:11:26.136Z,17.30
2019-06-20T16:13:53.858Z,17.50
2019-06-20T16:16:21.572Z,17.00
2019-06-20T16:18:49.980Z,17.00
2019-06-20T16:21:17.478Z,18.10
2019-06-20T16:23:44.934Z,17.50
2019-06-20T16:26:12.348Z,17.50
2019-06-20T16:28:40.381Z,17.20
2019-06-20T16:31:10.291Z,16.70
2019-06-20T16:33:37.466Z,16.80
2019-06-20T16:36:05.045Z,16.90
2019-06-20T16:38:32.875Z,16.90
2019-06-20T16:41:00.383Z,16.80
2019-06-20T16:43:27.931Z,16.90
2019-06-20T16:45:55.700Z,17.20
2019-06-20T16:48:23.162Z,17.40
2019-06-20T16:50:50.877Z,17.70
2019-06-20T16:53:18.390Z,17.60
2019-06-20T16:55:45.824Z,17.50
2019-06-20T16:58:13.262Z,17.30
2019-06-20T17:00:41.179Z,17.70
2019-06-20T17:03:08.656Z,17.70
2019-06-20T17:05:36.157Z,17.60
2019-06-20T17:08:06.155Z,17.50
2019-06-20T17:10:33.640Z,17.40
2019-06-20T17:13:01.147Z,17.50
2019-06-20T17:15:28.638Z,17.40
2019-06-20T17:17:56.148Z,17.50
2019-06-20T17:20:23.557Z,17.50
2019-06-20T17:22:51.098Z,17.40
2019-06-20T17:25:21.030Z,17.30
2019-06-20T17:27:48.510Z,17.30
2019-06-20T17:30:18.019Z,17.50
2019-06-20T17:32:45.423Z,17.60
2019-06-20T17:35:12.939Z,17.60
2019-06-20T17:37:40.822Z,17.50
2019-06-20T17:40:10.514Z,17.70
2019-06-20T17:42:38.068Z,17.90
2019-06-20T17:45:07.600Z,17.80
2019-06-20T17:47:35.396Z,17.90
2019-06-20T17:50:05.063Z,18.00
2019-06-20T17:52:32.550Z,18.00
2019-06-20T17:54:59.961Z,18.10
2019-06-20T17:57:27.423Z,18.00
2019-06-20T17:59:54.944Z,18.10
2019-06-20T18:02:22.462Z,18.30
2019-06-20T18:04:49.858Z,18.40
2019-06-20T18:07:17.346Z,18.20
2019-06-20T18:09:44.728Z,18.40
2019-06-20T18:12:12.239Z,18.40
2019-06-20T18:14:39.695Z,18.40
2019-06-20T18:17:07.224Z,18.60
2019-06-20T18:19:34.642Z,18.40
2019-06-20T18:22:02.118Z,18.40
2019-06-20T18:24:29.932Z,18.40
2019-06-20T18:26:57.456Z,18.40
2019-06-20T18:29:25.015Z,18.20
2019-06-20T18:31:52.790Z,18.10
2019-06-20T18:34:29.671Z,18.30
2019-06-20T18:36:49.406Z,18.20
2019-06-20T18:39:16.971Z,18.40
2019-06-20T18:41:47.343Z,18.10
2019-06-20T18:44:14.014Z,18.20
2019-06-20T18:46:41.499Z,18.00
2019-06-20T18:49:09.174Z,18.20
2019-06-20T18:51:36.831Z,18.10
2019-06-20T18:54:04.409Z,17.90
2019-06-20T18:56:31.889Z,17.90
2019-06-20T18:58:59.343Z,17.80
2019-06-20T19:01:26.842Z,17.80
2019-06-20T19:03:54.536Z,18.00
2019-06-20T19:06:35.166Z,18.00
2019-06-20T19:08:51.619Z,17.70
2019-06-20T19:11:19.370Z,18.00
2019-06-20T19:13:47.569Z,17.90
2019-06-20T19:16:15.083Z,17.80
2019-06-20T19:18:42.570Z,17.60
2019-06-20T19:21:10.057Z,17.70
2019-06-20T19:23:37.844Z,17.50
2019-06-20T19:26:05.323Z,17.60
2019-06-20T19:28:32.962Z,17.60
2019-06-20T19:31:00.415Z,17.40
2019-06-20T19:33:27.785Z,17.70
2019-06-20T19:35:55.142Z,17.30
2019-06-20T19:38:22.613Z,17.30
2019-06-20T19:40:50.234Z,17.60
2019-06-20T19:43:17.699Z,17.30
2019-06-20T19:45:45.261Z,17.30
2019-06-20T19:48:13.259Z,17.40
2019-06-20T19:50:41.419Z,17.40
2019-06-20T19:53:09.138Z,17.20
2019-06-20T19:55:36.870Z,17.00
2019-06-20T19:58:04.843Z,17.30
2019-06-20T20:00:32.324Z,17.10
2019-06-20T20:03:00.295Z,17.00
2019-06-20T20:05:27.925Z,17.10
2019-06-20T20:07:55.668Z,17.10
2019-06-20T20:10:32.648Z,16.80
2019-06-20T20:13:00.192Z,16.80
2019-06-20T20:15:27.910Z,16.90
2019-06-20T20:17:55.766Z,16.80
2019-06-20T20:20:23.334Z,17.10
2019-06-20T20:22:50.732Z,16.70
2019-06-20T20:25:18.191Z,16.80
2019-06-20T20:27:45.665Z,16.80
2019-06-20T20:30:13.306Z,16.90
2019-06-20T20:32:41.106Z,16.70
2019-06-20T20:35:08.608Z,16.80
2019-06-20T20:37:36.114Z,16.80
2019-06-20T20:40:04.274Z,17.00
2019-06-20T20:42:32.138Z,16.90
2019-06-20T20:44:59.886Z,16.80
2019-06-20T20:47:28.577Z,16.70
2019-06-20T20:49:56.128Z,16.90
2019-06-20T20:52:23.617Z,16.50
2019-06-20T20:54:51.244Z,16.70
2019-06-20T20:57:19.419Z,16.60
2019-06-20T20:59:46.980Z,16.70
2019-06-20T21:02:14.831Z,16.50
2019-06-20T21:04:42.355Z,16.30
2019-06-20T21:07:09.794Z,16.80
2019-06-20T21:09:37.245Z,16.50
2019-06-20T21:12:04.674Z,16.70
2019-06-20T21:14:32.182Z,16.80
2019-06-20T21:16:59.601Z,16.60
2019-06-20T21:19:27.100Z,16.60
2019-06-20T21:21:54.810Z,16.40
2019-06-20T21:24:22.180Z,16.70
2019-06-20T21:26:50.261Z,16.70
2019-06-20T21:29:18.101Z,16.60
2019-06-20T21:31:46.035Z,16.40
2019-06-20T21:34:13.704Z,16.70
2019-06-20T21:36:41.176Z,16.80
2019-06-20T21:39:08.762Z,16.40
2019-06-20T21:41:36.237Z,16.90
2019-06-20T21:44:04.297Z,16.70
2019-06-20T21:46:31.770Z,16.40
2019-06-20T21:48:59.280Z,16.40
2019-06-20T21:51:27.022Z,16.50
2019-06-20T21:53:54.466Z,16.40
2019-06-20T21:56:21.868Z,16.40
2019-06-20T21:58:49.344Z,16.30
2019-06-20T22:01:17.342Z,16.20
2019-06-20T22:03:44.854Z,16.30
2019-06-20T22:06:23.168Z,16.40
2019-06-20T22:08:41.604Z,16.70
2019-06-20T22:11:09.457Z,16.40
2019-06-20T22:13:36.974Z,16.60
2019-06-20T22:16:04.887Z,16.80
2019-06-20T22:18:32.403Z,16.30
2019-06-20T22:20:59.823Z,16.30
2019-06-20T22:23:27.402Z,16.60
2019-06-20T22:25:54.890Z,16.10
2019-06-20T22:28:22.318Z,16.10
2019-06-20T22:30:52.603Z,16.10
2019-06-20T22:33:20.837Z,16.40
2019-06-20T22:35:48.476Z,16.40
2019-06-20T22:38:16.216Z,16.10
2019-06-20T22:40:43.829Z,16.50
2019-06-20T22:43:11.341Z,16.30
2019-06-20T22:45:38.799Z,16.30
2019-06-20T22:48:06.455Z,16.30
2019-06-20T22:50:34.052Z,16.20
2019-06-20T22:53:01.979Z,16.20
2019-06-20T22:55:29.428Z,16.20
2019-06-20T22:57:56.923Z,16.10
2019-06-20T23:00:24.888Z,16.10
2019-06-20T23:02:52.339Z,16.40
2019-06-20T23:05:20.621Z,16.40
2019-06-20T23:07:48.062Z,16.10
2019-06-20T23:10:15.518Z,15.90
2019-06-20T23:16:12.337Z,16.00
2019-06-20T23:18:39.836Z,15.90
2019-06-20T23:21:07.218Z,16.10
2019-06-20T23:23:34.680Z,16.10
2019-06-20T23:26:03.923Z,15.70
2019-06-20T23:28:31.368Z,15.20
2019-06-20T23:30:59.191Z,16.00
2019-06-20T23:33:26.680Z,16.00
2019-06-20T23:35:54.106Z,15.80
2019-06-20T23:38:21.472Z,15.80
2019-06-20T23:40:48.979Z,15.80
2019-06-20T23:43:16.419Z,15.80
2019-06-20T23:45:43.923Z,15.70
2019-06-20T23:51:30.552Z,15.40
2019-06-20T23:53:58.134Z,15.70
2019-06-20T23:56:25.624Z,15.60
2019-06-20T23:58:53.130Z,15.60
